VMMC METAR and TAF | Updated Today

VMMC METAR

Macau International Airport

Observation time: 39 min. ago

VMMC 052030Z VRB01KT 7000 FEW012 SCT025 17/16 Q1014 NOSIG

Need help? Read our tutorial on how to read METARs or read the parsed version below.

Macau International Airport (VMMC) METAR

  • Weather conditions on Sun, 05 Feb 2023 20:30:00 +0000 (39 min. ago):
  • Present conditions: Dry
  • Clouds: A few at 366 meters; scattered at 762 meters
  • Visibility: 7000 meters
  • Wind: Variable at 1 knots
  • Temperature: 17 celsius
  • Dew point: 16 celsius
  • Pressure: 1014 millibars
  • Remarks: None


Useful to know...

VMMC TAF

Macau International Airport

TAF AMD VMMC 051808Z 0518/0624 09008KT 8000 FEW005 SCT020 TEMPO 0518/0524 02010KT 2500 -RA BR TEMPO 0600/0606 4000 -RA BR
Observation time: 3:01 hr. ago
Need help? Read our tutorial on how to read TAFs or read the parsed version below.

Parsed version of TAF for Macau International Airport (VMMC)

  • From 05 February at 18:00 UTC, to day 06 of the month at 24:00 UTC
  • Clouds: A few at 152 meters; scattered at 610 meters
  • Visibility: 8000 meters
  • Wind: 90 degrees at 8
  • Expected to arise temporarily, from 05 February at 18:00 UTC, to day 05 of the month at 24:00 UTC
  • Visibility: 2500 meters
  • Wind: 20 degrees at 10
  • Other: Light rain; mist
  • Expected to arise temporarily, from 06 February at 00:00 UTC, to day 06 of the month at 06:00 UTC
  • Visibility: 4000 meters
  • Other: Light rain; mist